Time;durP1;ratioP1;P1;durP2;ratioP2;P2;SDS_P1;SDS_P2;PMS_P1;PMS_P2;Temp;Humidity;BMP_temperature;BMP_pressure;BME280_temperature;BME280_humidity;BME280_pressure;Samples;Min_cycle;Max_cycle;Signal;HPM_P1;HPM_P2
2021/12/05 00:21:50;;;;;;;30.15;9.63;;;;;;;;;;8412636;28;20061;-73
2021/12/05 00:25:56;;;;;;;22.27;9.85;;;;;;;;;;8434995;28;20063;-75
2021/12/05 00:30:13;;;;;;;26.33;10.48;;;;;;;;;;8435830;28;20040;-73
2021/12/05 00:34:41;;;;;;;23.58;10.77;;;;;;;;;;8436160;28;20066;-74
2021/12/05 00:47:43;;;;;;;26.35;11.38;;;;;;;;;;8435152;28;20040;-73
2021/12/05 00:56:23;;;;;;;28.75;10.23;;;;;;;;;;8435046;28;20053;-73
2021/12/05 01:09:37;;;;;;;25.40;10.13;;;;;;;;;;8429158;28;20055;-74
2021/12/05 01:13:54;;;;;;;23.77;10.40;;;;;;;;;;8448260;28;20044;-76
2021/12/05 01:18:03;;;;;;;20.63;9.60;;;;;;;;;;8440367;28;20097;-73
2021/12/05 01:22:10;;;;;;;21.23;9.60;;;;;;;;;;8470018;27;20052;-73
2021/12/05 01:26:20;;;;;;;28.02;11.38;;;;;;;;;;8464542;27;20054;-74
2021/12/05 01:30:32;;;;;;;23.98;10.48;;;;;;;;;;8468736;27;20491;-74
2021/12/05 01:34:48;;;;;;;21.02;9.38;;;;;;;;;;8452573;27;20036;-73
2021/12/05 01:39:04;;;;;;;25.65;10.43;;;;;;;;;;8464344;27;20471;-73
2021/12/05 01:52:21;;;;;;;20.83;10.05;;;;;;;;;;8443807;27;19920;-73
2021/12/05 01:56:50;;;;;;;24.63;9.88;;;;;;;;;;8460148;28;20054;-76
2021/12/05 02:01:15;;;;;;;21.55;9.63;;;;;;;;;;8461033;28;20046;-77
2021/12/05 02:10:38;;;;;;;20.58;8.75;;;;;;;;;;8459845;28;20043;-73
2021/12/05 02:31:57;;;;;;;21.98;8.95;;;;;;;;;;8431926;28;20047;-74
2021/12/05 02:40:29;;;;;;;18.90;9.05;;;;;;;;;;8430645;28;20048;-74
2021/12/05 02:44:32;;;;;;;16.08;8.20;;;;;;;;;;8431960;28;20050;-75
2021/12/05 02:48:37;;;;;;;19.38;9.20;;;;;;;;;;8430766;28;20051;-74
2021/12/05 02:52:42;;;;;;;25.90;11.15;;;;;;;;;;8431682;28;20461;-74
2021/12/05 02:56:49;;;;;;;20.90;9.00;;;;;;;;;;8431615;28;20498;-74
2021/12/05 03:01:08;;;;;;;21.75;9.18;;;;;;;;;;8430983;28;20040;-73
2021/12/05 03:05:15;;;;;;;14.90;8.35;;;;;;;;;;8430858;28;20055;-74
2021/12/05 03:09:18;;;;;;;21.80;9.80;;;;;;;;;;8430745;28;20139;-73
2021/12/05 03:13:23;;;;;;;24.67;10.75;;;;;;;;;;8430696;28;20044;-75
2021/12/05 03:17:26;;;;;;;20.35;9.50;;;;;;;;;;8431042;28;20070;-74
2021/12/05 03:21:29;;;;;;;19.52;10.13;;;;;;;;;;8430497;28;20059;-73
2021/12/05 03:25:32;;;;;;;21.58;9.95;;;;;;;;;;8430432;28;20518;-74
2021/12/05 03:29:37;;;;;;;21.23;9.82;;;;;;;;;;8430261;28;20055;-73
2021/12/05 03:33:40;;;;;;;21.00;10.77;;;;;;;;;;8430277;28;20055;-73
2021/12/05 03:37:45;;;;;;;25.02;10.50;;;;;;;;;;8429954;28;20063;-74
2021/12/05 03:41:49;;;;;;;22.00;9.90;;;;;;;;;;8430188;28;20598;-74
2021/12/05 03:45:57;;;;;;;20.20;9.23;;;;;;;;;;8430550;28;20052;-74
2021/12/05 03:49:59;;;;;;;23.00;10.73;;;;;;;;;;8430091;28;20040;-73
2021/12/05 03:54:03;;;;;;;29.15;14.68;;;;;;;;;;8430408;28;20044;-74
2021/12/05 03:58:06;;;;;;;23.00;11.18;;;;;;;;;;8430257;28;20047;-73
2021/12/05 04:02:10;;;;;;;24.33;10.95;;;;;;;;;;8436556;28;20052;-74
2021/12/05 04:06:15;;;;;;;30.40;12.18;;;;;;;;;;8436569;28;20040;-75
2021/12/05 04:10:19;;;;;;;31.45;12.65;;;;;;;;;;8436868;28;20399;-74
2021/12/05 04:14:23;;;;;;;31.08;12.85;;;;;;;;;;8436731;28;20110;-73
2021/12/05 04:18:28;;;;;;;25.63;10.65;;;;;;;;;;8435988;28;20483;-73
2021/12/05 04:22:31;;;;;;;25.58;11.38;;;;;;;;;;8436470;28;20048;-74
2021/12/05 04:26:34;;;;;;;28.65;11.88;;;;;;;;;;8435792;28;20049;-76
2021/12/05 04:30:38;;;;;;;27.27;12.30;;;;;;;;;;8435684;28;20055;-73
2021/12/05 04:34:42;;;;;;;24.05;10.77;;;;;;;;;;8435527;28;20040;-74
2021/12/05 04:38:46;;;;;;;27.75;11.23;;;;;;;;;;8435055;28;20138;-75
2021/12/05 04:42:49;;;;;;;27.05;11.25;;;;;;;;;;8435361;28;20060;-75
2021/12/05 04:46:52;;;;;;;32.25;12.98;;;;;;;;;;8435322;28;20198;-74
2021/12/05 04:50:57;;;;;;;25.48;10.82;;;;;;;;;;8435206;28;20044;-74
2021/12/05 04:55:00;;;;;;;24.95;11.43;;;;;;;;;;8434984;28;20051;-77
2021/12/05 04:59:11;;;;;;;25.02;11.50;;;;;;;;;;8434769;28;20125;-76
2021/12/05 05:03:15;;;;;;;22.65;10.05;;;;;;;;;;8434787;28;20109;-74
2021/12/05 05:07:25;;;;;;;25.23;12.50;;;;;;;;;;8435138;28;20048;-75
2021/12/05 05:11:28;;;;;;;30.08;14.30;;;;;;;;;;8434150;28;20037;-74
2021/12/05 05:15:31;;;;;;;27.88;12.48;;;;;;;;;;8434378;28;20047;-75
2021/12/05 05:19:38;;;;;;;27.17;13.27;;;;;;;;;;8434289;28;20048;-74
2021/12/05 05:24:02;;;;;;;28.77;13.55;;;;;;;;;;8434137;28;20047;-73
2021/12/05 05:28:46;;;;;;;27.23;12.40;;;;;;;;;;8434090;28;20119;-74
2021/12/05 05:42:14;;;;;;;28.58;12.15;;;;;;;;;;8433539;28;20051;-74
2021/12/05 05:46:18;;;;;;;27.70;11.63;;;;;;;;;;8433379;28;20055;-76
2021/12/05 05:50:23;;;;;;;21.80;10.45;;;;;;;;;;8433149;28;20090;-74
2021/12/05 05:54:25;;;;;;;26.83;12.88;;;;;;;;;;8433464;28;20055;-73
2021/12/05 05:58:39;;;;;;;28.85;13.15;;;;;;;;;;8433301;28;20047;-74
2021/12/05 06:07:04;;;;;;;32.55;13.90;;;;;;;;;;8433206;28;20601;-73
2021/12/05 06:11:09;;;;;;;37.70;17.27;;;;;;;;;;8436953;28;20048;-73
2021/12/05 06:15:17;;;;;;;28.50;12.80;;;;;;;;;;8460548;28;20092;-74
2021/12/05 06:19:20;;;;;;;28.38;12.75;;;;;;;;;;8458552;28;20547;-74
2021/12/05 06:23:23;;;;;;;33.55;13.90;;;;;;;;;;8431766;28;20052;-75
2021/12/05 06:27:26;;;;;;;33.25;15.02;;;;;;;;;;8431897;28;20048;-73
2021/12/05 06:31:46;;;;;;;35.08;14.93;;;;;;;;;;8431962;28;20052;-74
2021/12/05 06:48:58;;;;;;;56.63;21.30;;;;;;;;;;8431363;28;20097;-77
2021/12/05 06:53:01;;;;;;;61.30;25.50;;;;;;;;;;8431240;28;20051;-77
2021/12/05 06:57:05;;;;;;;60.25;21.88;;;;;;;;;;8431120;28;20048;-77
2021/12/05 07:01:10;;;;;;;29.40;12.43;;;;;;;;;;8441096;28;20058;-74
2021/12/05 07:05:36;;;;;;;26.58;11.45;;;;;;;;;;8464591;28;20054;-76
2021/12/05 07:09:40;;;;;;;21.15;10.95;;;;;;;;;;8464531;28;20040;-76
2021/12/05 07:22:41;;;;;;;18.75;9.90;;;;;;;;;;8457203;28;20047;-74
2021/12/05 07:27:06;;;;;;;18.27;9.38;;;;;;;;;;8464172;28;20050;-74
2021/12/05 07:44:12;;;;;;;20.88;10.68;;;;;;;;;;8441397;28;20040;-73
2021/12/05 07:48:20;;;;;;;21.55;10.13;;;;;;;;;;8430095;28;20093;-74
2021/12/05 07:52:26;;;;;;;19.02;10.90;;;;;;;;;;8430002;28;20142;-76
2021/12/05 07:56:38;;;;;;;28.95;12.95;;;;;;;;;;8430412;28;20376;-73
2021/12/05 08:00:53;;;;;;;32.30;12.65;;;;;;;;;;8430311;28;20059;-73
2021/12/05 08:17:58;;;;;;;29.42;14.52;;;;;;;;;;8427472;28;20044;-75
2021/12/05 08:22:01;;;;;;;41.83;19.13;;;;;;;;;;8428554;28;20048;-74
2021/12/05 08:26:08;;;;;;;57.13;22.60;;;;;;;;;;8429018;28;20040;-73
2021/12/05 08:30:19;;;;;;;33.70;15.63;;;;;;;;;;8429910;28;20044;-73
2021/12/05 08:34:43;;;;;;;34.05;14.60;;;;;;;;;;8429662;28;20058;-74
2021/12/05 09:27:27;;;;;;;34.78;15.80;;;;;;;;;;8460487;28;20043;-72
2021/12/05 09:50:55;;;;;;;29.17;15.07;;;;;;;;;;8489037;28;20055;-74
2021/12/05 10:02:45;;;;;;;38.05;17.63;;;;;;;;;;8452950;28;20502;-76
2021/12/05 10:06:53;;;;;;;28.20;14.38;;;;;;;;;;8467220;28;20047;-74
2021/12/05 10:11:15;;;;;;;31.48;14.73;;;;;;;;;;8467056;28;20052;-74
2021/12/05 10:15:35;;;;;;;31.17;17.02;;;;;;;;;;8467217;28;20043;-73
2021/12/05 10:37:12;;;;;;;;;;;;;;;;;;8454902;28;20039;-75
2021/12/05 10:41:23;;;;;;;34.80;16.83;;;;;;;;;;8456896;28;19942;-76
2021/12/05 10:45:36;;;;;;;29.35;15.52;;;;;;;;;;8461945;28;20135;-74
2021/12/05 10:49:40;;;;;;;48.90;23.73;;;;;;;;;;8465838;28;20043;-74
2021/12/05 10:53:44;;;;;;;48.45;21.00;;;;;;;;;;8466217;28;20399;-73
2021/12/05 10:57:52;;;;;;;36.67;17.70;;;;;;;;;;8465832;28;20067;-74
2021/12/05 11:02:01;;;;;;;65.82;27.33;;;;;;;;;;8465953;28;20071;-74
2021/12/05 11:06:17;;;;;;;43.10;19.95;;;;;;;;;;8464202;28;20055;-76
2021/12/05 11:10:21;;;;;;;54.08;23.55;;;;;;;;;;8465281;28;20040;-73
2021/12/05 11:14:27;;;;;;;42.67;18.73;;;;;;;;;;8465026;28;20442;-75
2021/12/05 11:18:45;;;;;;;29.60;15.07;;;;;;;;;;8465059;28;20040;-74
2021/12/05 11:22:51;;;;;;;32.78;16.00;;;;;;;;;;8464991;28;20074;-75
2021/12/05 11:27:31;;;;;;;33.63;15.27;;;;;;;;;;8464810;28;20131;-74
2021/12/05 11:31:35;;;;;;;39.35;20.55;;;;;;;;;;8451965;28;20151;-76
2021/12/05 11:35:43;;;;;;;29.08;14.20;;;;;;;;;;8464674;28;20047;-74
2021/12/05 11:39:48;;;;;;;46.28;23.92;;;;;;;;;;8464686;28;20043;-78
2021/12/05 11:43:54;;;;;;;43.92;23.73;;;;;;;;;;8463901;28;20035;-77
2021/12/05 11:47:58;;;;;;;31.52;15.63;;;;;;;;;;8464920;28;20044;-77
2021/12/05 11:52:03;;;;;;;30.60;16.00;;;;;;;;;;8464853;28;20055;-75
2021/12/05 11:56:07;;;;;;;73.35;45.05;;;;;;;;;;8465254;28;20051;-74
2021/12/05 12:00:17;;;;;;;35.33;19.00;;;;;;;;;;8465056;28;20067;-75
2021/12/05 12:04:25;;;;;;;30.88;16.65;;;;;;;;;;8464644;28;20130;-73
2021/12/05 12:08:30;;;;;;;39.17;19.48;;;;;;;;;;8464395;28;20100;-74
2021/12/05 12:12:36;;;;;;;35.45;17.40;;;;;;;;;;8464370;28;20060;-73
2021/12/05 12:16:39;;;;;;;35.25;16.20;;;;;;;;;;8464088;28;20050;-76
2021/12/05 12:20:46;;;;;;;35.13;16.27;;;;;;;;;;8464182;28;20043;-77
2021/12/05 12:24:52;;;;;;;47.83;19.58;;;;;;;;;;8464097;28;20043;-76
2021/12/05 12:28:57;;;;;;;42.67;19.75;;;;;;;;;;8464541;28;20054;-75
2021/12/05 12:33:08;;;;;;;60.30;26.75;;;;;;;;;;8454153;28;20122;-75
2021/12/05 12:37:13;;;;;;;49.25;21.70;;;;;;;;;;8459272;28;20051;-73
2021/12/05 12:41:21;;;;;;;41.75;19.00;;;;;;;;;;8458760;28;20105;-75
2021/12/05 12:45:24;;;;;;;35.55;16.77;;;;;;;;;;8459494;28;20134;-72
2021/12/05 12:49:33;;;;;;;63.42;25.48;;;;;;;;;;8458253;28;20393;-73
2021/12/05 12:53:38;;;;;;;51.22;22.75;;;;;;;;;;8459375;28;20073;-74
2021/12/05 12:57:42;;;;;;;64.28;28.13;;;;;;;;;;8459398;28;20048;-74
2021/12/05 13:02:15;;;;;;;65.38;28.63;;;;;;;;;;8461223;28;20129;-74
2021/12/05 13:10:41;;;;;;;37.35;17.13;;;;;;;;;;8457639;28;20047;-74
2021/12/05 13:15:04;;;;;;;61.35;28.55;;;;;;;;;;8459230;28;20062;-73
2021/12/05 13:19:10;;;;;;;46.58;21.63;;;;;;;;;;8458811;28;20050;-74
2021/12/05 13:23:15;;;;;;;52.78;24.65;;;;;;;;;;8460149;28;20477;-74
2021/12/05 13:27:35;;;;;;;68.88;28.42;;;;;;;;;;8462728;28;20065;-73
2021/12/05 13:31:49;;;;;;;53.85;26.58;;;;;;;;;;8466586;28;20067;-73
2021/12/05 13:35:58;;;;;;;45.97;21.88;;;;;;;;;;8467713;28;20043;-74
2021/12/05 13:40:25;;;;;;;44.30;19.67;;;;;;;;;;8467413;28;20076;-74
2021/12/05 13:45:07;;;;;;;44.03;22.83;;;;;;;;;;8457487;28;20036;-75
2021/12/05 13:49:36;;;;;;;55.47;24.27;;;;;;;;;;8429886;28;20040;-73
2021/12/05 13:53:49;;;;;;;63.53;31.63;;;;;;;;;;8463525;28;20394;-73
2021/12/05 13:58:28;;;;;;;84.90;38.28;;;;;;;;;;8466023;28;20126;-75
2021/12/05 14:02:52;;;;;;;87.78;36.47;;;;;;;;;;8466011;28;20124;-75
2021/12/05 14:07:01;;;;;;;95.07;45.78;;;;;;;;;;8464154;28;20046;-74
2021/12/05 14:11:05;;;;;;;78.05;32.70;;;;;;;;;;8466067;28;20051;-75
2021/12/05 14:15:10;;;;;;;77.38;35.05;;;;;;;;;;8466562;28;20122;-74
2021/12/05 14:19:15;;;;;;;54.38;25.23;;;;;;;;;;8452692;28;20040;-75
2021/12/05 14:23:24;;;;;;;108.82;32.85;;;;;;;;;;8465123;28;20074;-74
2021/12/05 14:27:31;;;;;;;86.75;36.00;;;;;;;;;;8461986;28;20126;-73
2021/12/05 14:31:37;;;;;;;71.15;31.88;;;;;;;;;;8461659;28;20059;-73
2021/12/05 14:35:41;;;;;;;84.35;31.77;;;;;;;;;;8459877;28;20039;-74
2021/12/05 14:39:48;;;;;;;127.68;46.53;;;;;;;;;;8465107;28;20039;-73
2021/12/05 14:43:56;;;;;;;73.55;33.45;;;;;;;;;;8451196;28;20104;-75
2021/12/05 14:48:02;;;;;;;55.80;23.83;;;;;;;;;;8465813;28;20069;-77
2021/12/05 14:52:09;;;;;;;55.38;27.02;;;;;;;;;;8465787;28;20483;-76
2021/12/05 14:56:15;;;;;;;52.20;22.30;;;;;;;;;;8464938;28;20520;-75
2021/12/05 15:00:24;;;;;;;56.00;23.92;;;;;;;;;;8460905;28;20039;-74
2021/12/05 15:04:31;;;;;;;54.58;23.88;;;;;;;;;;8463463;28;20044;-74
2021/12/05 15:08:35;;;;;;;59.45;26.30;;;;;;;;;;8464208;28;20258;-75
2021/12/05 15:12:40;;;;;;;93.95;36.40;;;;;;;;;;8464989;28;20047;-74
2021/12/05 15:16:52;;;;;;;72.82;31.65;;;;;;;;;;8464855;28;20036;-74
2021/12/05 15:20:56;;;;;;;84.15;33.75;;;;;;;;;;8463525;28;20043;-75
2021/12/05 15:25:02;;;;;;;89.88;33.85;;;;;;;;;;8462966;28;20485;-74
2021/12/05 15:29:07;;;;;;;83.13;30.98;;;;;;;;;;8462595;28;20475;-75
2021/12/05 15:33:12;;;;;;;80.07;29.85;;;;;;;;;;8462353;28;20178;-73
2021/12/05 15:37:20;;;;;;;102.30;32.13;;;;;;;;;;8460925;28;20127;-74
2021/12/05 15:41:23;;;;;;;83.65;31.27;;;;;;;;;;8463319;28;20052;-74
2021/12/05 15:45:27;;;;;;;87.40;32.90;;;;;;;;;;8420543;28;20071;-74
2021/12/05 15:49:49;;;;;;;105.38;36.15;;;;;;;;;;8426807;28;20097;-75
2021/12/05 15:54:11;;;;;;;105.50;39.95;;;;;;;;;;8460554;28;20047;-74
2021/12/05 15:58:24;;;;;;;86.53;34.97;;;;;;;;;;8431788;28;20050;-77
2021/12/05 16:02:32;;;;;;;86.55;31.88;;;;;;;;;;8437438;28;20495;-78
2021/12/05 16:06:40;;;;;;;87.20;31.65;;;;;;;;;;8435748;28;20044;-76
2021/12/05 16:10:57;;;;;;;86.22;33.80;;;;;;;;;;8447969;28;20040;-76
2021/12/05 16:15:06;;;;;;;82.25;31.75;;;;;;;;;;8454897;28;20407;-73
2021/12/05 16:19:13;;;;;;;87.93;31.40;;;;;;;;;;8449391;28;20051;-77
2021/12/05 16:23:20;;;;;;;102.32;40.60;;;;;;;;;;8461496;28;20095;-76
2021/12/05 16:27:23;;;;;;;98.93;34.60;;;;;;;;;;8429369;28;20047;-77
2021/12/05 16:31:32;;;;;;;101.72;36.40;;;;;;;;;;8431694;28;20125;-79
2021/12/05 16:35:55;;;;;;;97.13;35.73;;;;;;;;;;8433704;28;20101;-75
2021/12/05 16:40:04;;;;;;;106.40;37.65;;;;;;;;;;8435571;28;20055;-79
2021/12/05 16:44:13;;;;;;;116.00;37.15;;;;;;;;;;8429565;28;20487;-75
2021/12/05 16:48:20;;;;;;;104.97;32.72;;;;;;;;;;8429110;28;20051;-76
2021/12/05 16:52:31;;;;;;;105.25;35.65;;;;;;;;;;8433285;28;20460;-76
2021/12/05 16:56:49;;;;;;;98.43;30.40;;;;;;;;;;8450668;28;20054;-74
2021/12/05 17:00:55;;;;;;;107.35;30.48;;;;;;;;;;8458519;28;20047;-73
2021/12/05 17:05:15;;;;;;;100.43;31.83;;;;;;;;;;8467022;28;20052;-75
2021/12/05 17:09:23;;;;;;;88.90;29.55;;;;;;;;;;8469572;28;20051;-74
2021/12/05 17:13:52;;;;;;;97.60;30.88;;;;;;;;;;8420251;28;20422;-73
2021/12/05 17:18:03;;;;;;;83.07;28.05;;;;;;;;;;8465284;28;20494;-75
2021/12/05 17:22:17;;;;;;;103.07;33.10;;;;;;;;;;8462101;28;20043;-75
2021/12/05 17:26:40;;;;;;;106.05;33.65;;;;;;;;;;8462414;28;20044;-77
2021/12/05 17:31:07;;;;;;;106.68;31.10;;;;;;;;;;8468215;28;20085;-74
2021/12/05 17:35:21;;;;;;;117.97;34.45;;;;;;;;;;8453571;28;20093;-75
2021/12/05 17:39:30;;;;;;;106.68;29.13;;;;;;;;;;8440178;28;20063;-74
2021/12/05 17:43:38;;;;;;;120.20;31.58;;;;;;;;;;8467837;28;20047;-76
2021/12/05 17:47:46;;;;;;;107.85;31.50;;;;;;;;;;8463329;28;20502;-74
2021/12/05 17:51:51;;;;;;;117.45;36.03;;;;;;;;;;8435307;28;20098;-74
2021/12/05 17:56:00;;;;;;;114.55;31.48;;;;;;;;;;8452454;28;20051;-72
2021/12/05 18:00:15;;;;;;;116.53;27.98;;;;;;;;;;8467526;28;20039;-74
2021/12/05 18:04:27;;;;;;;122.22;31.05;;;;;;;;;;8461367;28;20048;-73
2021/12/05 18:08:36;;;;;;;121.07;30.27;;;;;;;;;;8448078;28;20040;-76
2021/12/05 18:12:40;;;;;;;149.32;32.03;;;;;;;;;;8466722;28;20040;-73
2021/12/05 18:22:10;;;;;;;142.02;34.72;;;;;;;;;;8442987;28;20510;-73
2021/12/05 18:26:18;;;;;;;145.35;36.55;;;;;;;;;;8451833;28;20131;-74
2021/12/05 18:30:30;;;;;;;141.35;33.13;;;;;;;;;;8454855;28;20138;-73
2021/12/05 18:34:38;;;;;;;123.50;31.02;;;;;;;;;;8439773;28;20122;-74
2021/12/05 18:38:43;;;;;;;163.30;34.53;;;;;;;;;;8467258;28;20131;-73
2021/12/05 18:42:49;;;;;;;120.95;30.58;;;;;;;;;;8466395;28;20586;-74
2021/12/05 18:46:57;;;;;;;160.77;34.95;;;;;;;;;;8444902;28;20495;-73
2021/12/05 18:51:04;;;;;;;117.80;29.33;;;;;;;;;;8431111;28;20097;-73
2021/12/05 18:55:15;;;;;;;177.40;33.45;;;;;;;;;;8430853;28;20055;-72
2021/12/05 18:59:22;;;;;;;197.57;47.17;;;;;;;;;;8431999;28;20040;-77
2021/12/05 19:07:50;;;;;;;174.20;39.25;;;;;;;;;;8440646;28;20048;-75
2021/12/05 19:11:58;;;;;;;199.93;41.15;;;;;;;;;;8431530;28;20484;-76
2021/12/05 19:16:03;;;;;;;216.93;47.75;;;;;;;;;;8438583;28;20446;-77
2021/12/05 19:20:10;;;;;;;200.15;43.20;;;;;;;;;;8430435;28;20048;-75
2021/12/05 19:24:13;;;;;;;201.32;41.42;;;;;;;;;;8433146;28;20368;-74
2021/12/05 19:28:17;;;;;;;175.00;36.00;;;;;;;;;;8464171;28;20122;-74
2021/12/05 19:32:24;;;;;;;150.75;32.25;;;;;;;;;;8464473;28;20051;-75
2021/12/05 19:36:30;;;;;;;227.27;51.90;;;;;;;;;;8442626;28;20418;-74
2021/12/05 19:40:38;;;;;;;237.80;41.42;;;;;;;;;;8434914;28;20044;-72
2021/12/05 19:44:44;;;;;;;185.65;34.15;;;;;;;;;;8432455;28;20130;-73
2021/12/05 19:48:51;;;;;;;156.98;33.47;;;;;;;;;;8419338;28;20044;-73
2021/12/05 19:52:57;;;;;;;138.43;30.77;;;;;;;;;;8437132;28;20043;-74
2021/12/05 19:57:02;;;;;;;154.13;32.15;;;;;;;;;;8438555;28;20055;-76
2021/12/05 20:01:09;;;;;;;134.90;31.45;;;;;;;;;;8432326;28;20064;-74
2021/12/05 20:05:16;;;;;;;152.52;33.20;;;;;;;;;;8439231;28;20074;-75
2021/12/05 20:09:20;;;;;;;148.38;34.75;;;;;;;;;;8457250;28;20091;-76
2021/12/05 20:13:24;;;;;;;160.52;34.28;;;;;;;;;;8463432;28;20039;-74
2021/12/05 20:17:29;;;;;;;149.60;31.33;;;;;;;;;;8447990;28;20491;-74
2021/12/05 20:21:37;;;;;;;143.65;32.15;;;;;;;;;;8453612;28;20043;-74
2021/12/05 20:25:40;;;;;;;150.13;34.22;;;;;;;;;;8452371;28;20043;-72
2021/12/05 20:29:43;;;;;;;146.63;37.08;;;;;;;;;;8450275;28;20044;-76
2021/12/05 20:33:52;;;;;;;162.35;39.00;;;;;;;;;;8431897;28;20044;-74
2021/12/05 20:37:59;;;;;;;170.77;40.05;;;;;;;;;;8432897;28;20457;-75
2021/12/05 20:42:02;;;;;;;157.00;40.92;;;;;;;;;;8451192;28;20047;-75
2021/12/05 20:46:06;;;;;;;145.75;33.92;;;;;;;;;;8441678;28;20071;-75
2021/12/05 20:50:12;;;;;;;145.10;34.40;;;;;;;;;;8428374;28;20048;-74
2021/12/05 20:54:16;;;;;;;145.23;33.33;;;;;;;;;;8461297;28;20055;-74
2021/12/05 20:58:21;;;;;;;149.73;32.97;;;;;;;;;;8462772;28;20036;-76
2021/12/05 21:02:25;;;;;;;145.80;34.88;;;;;;;;;;8460456;28;20052;-76
2021/12/05 21:06:32;;;;;;;143.77;35.03;;;;;;;;;;8438749;28;20074;-76
2021/12/05 21:10:38;;;;;;;151.98;38.90;;;;;;;;;;8444644;28;20043;-77
2021/12/05 21:14:41;;;;;;;143.45;34.85;;;;;;;;;;8455297;28;20052;-76
2021/12/05 21:18:45;;;;;;;139.35;35.88;;;;;;;;;;8462898;28;20043;-76
2021/12/05 21:22:49;;;;;;;153.88;43.30;;;;;;;;;;8458035;28;20056;-76
2021/12/05 21:26:55;;;;;;;146.45;40.25;;;;;;;;;;8457512;28;20048;-76
2021/12/05 21:30:59;;;;;;;143.07;36.85;;;;;;;;;;8454082;28;20040;-76
2021/12/05 21:35:06;;;;;;;134.98;39.03;;;;;;;;;;8461810;28;20048;-75
2021/12/05 21:39:11;;;;;;;167.50;41.83;;;;;;;;;;8462485;28;20051;-75
2021/12/05 21:43:15;;;;;;;127.95;35.80;;;;;;;;;;8462102;28;20074;-77
2021/12/05 21:47:18;;;;;;;128.07;33.85;;;;;;;;;;8461892;28;20048;-73
2021/12/05 21:51:25;;;;;;;145.90;35.03;;;;;;;;;;8465315;28;20050;-77
2021/12/05 21:55:31;;;;;;;139.43;35.35;;;;;;;;;;8463273;28;20242;-77
2021/12/05 21:59:34;;;;;;;152.90;35.80;;;;;;;;;;8459376;28;20050;-75
2021/12/05 22:03:39;;;;;;;165.60;36.20;;;;;;;;;;8461480;28;20072;-74
2021/12/05 22:07:43;;;;;;;172.57;35.08;;;;;;;;;;8468350;28;20444;-72
2021/12/05 22:11:47;;;;;;;164.70;35.67;;;;;;;;;;8468798;28;20051;-73
2021/12/05 22:15:51;;;;;;;165.70;36.20;;;;;;;;;;8468224;28;20451;-74
2021/12/05 22:19:56;;;;;;;191.43;36.00;;;;;;;;;;8468452;28;20105;-73
2021/12/05 22:24:00;;;;;;;197.32;34.42;;;;;;;;;;8467821;28;20059;-75
2021/12/05 22:28:08;;;;;;;188.35;33.40;;;;;;;;;;8467771;28;20058;-74
2021/12/05 22:32:14;;;;;;;172.82;34.80;;;;;;;;;;8467668;28;20052;-74
2021/12/05 22:36:17;;;;;;;237.75;42.47;;;;;;;;;;8467623;28;20043;-74
2021/12/05 22:40:24;;;;;;;191.95;35.47;;;;;;;;;;8467637;28;20055;-75
2021/12/05 22:44:29;;;;;;;191.00;34.65;;;;;;;;;;8467380;28;20040;-75
2021/12/05 22:48:32;;;;;;;184.50;39.97;;;;;;;;;;8467321;28;20483;-75
2021/12/05 22:52:36;;;;;;;202.93;40.60;;;;;;;;;;8467529;28;20380;-74
2021/12/05 22:56:39;;;;;;;160.07;31.33;;;;;;;;;;8467394;28;20161;-74
2021/12/05 23:00:52;;;;;;;187.43;32.63;;;;;;;;;;8466817;28;20051;-75
2021/12/05 23:04:55;;;;;;;155.35;36.05;;;;;;;;;;8467075;28;20406;-74
2021/12/05 23:09:01;;;;;;;208.77;33.67;;;;;;;;;;8466559;28;20393;-74
2021/12/05 23:13:05;;;;;;;198.25;32.33;;;;;;;;;;8466403;28;20044;-75
2021/12/05 23:17:09;;;;;;;225.98;32.47;;;;;;;;;;8466632;28;20047;-74
2021/12/05 23:21:16;;;;;;;156.23;31.08;;;;;;;;;;8466081;28;20222;-75
2021/12/05 23:25:20;;;;;;;162.90;34.58;;;;;;;;;;8466047;28;20441;-76
2021/12/05 23:29:26;;;;;;;184.32;35.28;;;;;;;;;;8465761;28;20072;-73
2021/12/05 23:33:31;;;;;;;174.52;34.85;;;;;;;;;;8465718;28;20043;-73
2021/12/05 23:37:34;;;;;;;172.73;32.83;;;;;;;;;;8466052;28;20475;-76
2021/12/05 23:41:38;;;;;;;174.20;32.00;;;;;;;;;;8465244;28;20498;-76
2021/12/05 23:45:41;;;;;;;136.10;33.70;;;;;;;;;;8465193;28;20048;-74
2021/12/05 23:49:46;;;;;;;151.98;32.53;;;;;;;;;;8465195;28;20040;-75
2021/12/05 23:53:50;;;;;;;181.95;34.63;;;;;;;;;;8465099;28;20084;-75
2021/12/05 23:57:54;;;;;;;162.75;33.88;;;;;;;;;;8464894;28;20043;-74
